sensor_id;sensor_type;location;lat;lon;timestamp;P1;durP1;ratioP1;P2;durP2;ratioP2
6209;SDS011;3138;52.550;13.148;2024-03-02T00:01:09;78.10;;;44.03;;
6209;SDS011;3138;52.550;13.148;2024-03-02T00:03:38;90.63;;;42.53;;
6209;SDS011;3138;52.550;13.148;2024-03-02T00:06:05;87.97;;;44.37;;
6209;SDS011;3138;52.550;13.148;2024-03-02T00:08:33;83.83;;;42.03;;
6209;SDS011;3138;52.550;13.148;2024-03-02T00:11:00;95.47;;;44.13;;
6209;SDS011;3138;52.550;13.148;2024-03-02T00:13:28;86.33;;;43.13;;
6209;SDS011;3138;52.550;13.148;2024-03-02T00:15:56;95.37;;;44.50;;
6209;SDS011;3138;52.550;13.148;2024-03-02T00:18:24;94.03;;;47.60;;
6209;SDS011;3138;52.550;13.148;2024-03-02T00:20:54;98.63;;;45.57;;
6209;SDS011;3138;52.550;13.148;2024-03-02T00:23:22;100.83;;;45.23;;
6209;SDS011;3138;52.550;13.148;2024-03-02T00:25:52;95.77;;;45.83;;
6209;SDS011;3138;52.550;13.148;2024-03-02T00:28:20;85.17;;;44.30;;
6209;SDS011;3138;52.550;13.148;2024-03-02T00:30:57;83.20;;;42.40;;
6209;SDS011;3138;52.550;13.148;2024-03-02T00:33:26;94.70;;;45.50;;
6209;SDS011;3138;52.550;13.148;2024-03-02T00:35:57;94.93;;;44.90;;
6209;SDS011;3138;52.550;13.148;2024-03-02T00:38:24;92.37;;;46.07;;
6209;SDS011;3138;52.550;13.148;2024-03-02T00:40:52;92.37;;;44.73;;
6209;SDS011;3138;52.550;13.148;2024-03-02T00:46:12;84.00;;;42.40;;
6209;SDS011;3138;52.550;13.148;2024-03-02T00:48:44;84.83;;;44.90;;
6209;SDS011;3138;52.550;13.148;2024-03-02T00:51:16;89.23;;;45.23;;
6209;SDS011;3138;52.550;13.148;2024-03-02T00:53:42;89.53;;;46.23;;
6209;SDS011;3138;52.550;13.148;2024-03-02T00:56:10;85.97;;;42.87;;
6209;SDS011;3138;52.550;13.148;2024-03-02T00:58:37;113.23;;;52.63;;
6209;SDS011;3138;52.550;13.148;2024-03-02T01:01:05;106.20;;;49.40;;
6209;SDS011;3138;52.550;13.148;2024-03-02T01:03:32;98.97;;;45.40;;
6209;SDS011;3138;52.550;13.148;2024-03-02T01:05:59;86.53;;;47.87;;
6209;SDS011;3138;52.550;13.148;2024-03-02T01:08:27;104.83;;;49.57;;
6209;SDS011;3138;52.550;13.148;2024-03-02T01:10:54;98.40;;;47.07;;
6209;SDS011;3138;52.550;13.148;2024-03-02T01:13:21;101.60;;;51.47;;
6209;SDS011;3138;52.550;13.148;2024-03-02T01:15:49;89.60;;;50.87;;
6209;SDS011;3138;52.550;13.148;2024-03-02T01:18:16;116.87;;;51.47;;
6209;SDS011;3138;52.550;13.148;2024-03-02T01:20:43;107.47;;;47.73;;
6209;SDS011;3138;52.550;13.148;2024-03-02T01:23:10;91.57;;;47.20;;
6209;SDS011;3138;52.550;13.148;2024-03-02T01:25:38;98.07;;;48.77;;
6209;SDS011;3138;52.550;13.148;2024-03-02T01:28:05;99.83;;;51.30;;
6209;SDS011;3138;52.550;13.148;2024-03-02T01:30:32;93.93;;;49.20;;
6209;SDS011;3138;52.550;13.148;2024-03-02T01:32:58;96.10;;;47.97;;
6209;SDS011;3138;52.550;13.148;2024-03-02T01:35:27;101.67;;;51.17;;
6209;SDS011;3138;52.550;13.148;2024-03-02T01:37:54;98.60;;;52.13;;
6209;SDS011;3138;52.550;13.148;2024-03-02T01:40:20;98.50;;;48.63;;
6209;SDS011;3138;52.550;13.148;2024-03-02T01:42:52;109.33;;;53.77;;
6209;SDS011;3138;52.550;13.148;2024-03-02T01:45:20;109.97;;;55.10;;
6209;SDS011;3138;52.550;13.148;2024-03-02T01:47:47;114.23;;;54.17;;
6209;SDS011;3138;52.550;13.148;2024-03-02T01:50:14;120.03;;;56.30;;
6209;SDS011;3138;52.550;13.148;2024-03-02T01:52:42;139.23;;;65.30;;
6209;SDS011;3138;52.550;13.148;2024-03-02T01:55:09;119.77;;;59.50;;
6209;SDS011;3138;52.550;13.148;2024-03-02T01:57:36;151.53;;;63.80;;
6209;SDS011;3138;52.550;13.148;2024-03-02T02:00:05;139.50;;;61.87;;
6209;SDS011;3138;52.550;13.148;2024-03-02T02:02:34;147.10;;;64.80;;
6209;SDS011;3138;52.550;13.148;2024-03-02T02:05:01;131.07;;;58.80;;
6209;SDS011;3138;52.550;13.148;2024-03-02T02:07:29;126.80;;;60.97;;
6209;SDS011;3138;52.550;13.148;2024-03-02T02:09:56;160.63;;;65.93;;
6209;SDS011;3138;52.550;13.148;2024-03-02T02:12:23;142.80;;;62.67;;
6209;SDS011;3138;52.550;13.148;2024-03-02T02:14:50;131.83;;;61.80;;
6209;SDS011;3138;52.550;13.148;2024-03-02T02:17:18;135.07;;;60.80;;
6209;SDS011;3138;52.550;13.148;2024-03-02T02:19:45;129.53;;;58.50;;
6209;SDS011;3138;52.550;13.148;2024-03-02T02:22:14;132.17;;;60.73;;
6209;SDS011;3138;52.550;13.148;2024-03-02T02:24:41;118.93;;;58.60;;
6209;SDS011;3138;52.550;13.148;2024-03-02T02:27:08;149.67;;;64.60;;
6209;SDS011;3138;52.550;13.148;2024-03-02T02:29:35;138.00;;;64.97;;
6209;SDS011;3138;52.550;13.148;2024-03-02T02:32:03;126.70;;;59.33;;
6209;SDS011;3138;52.550;13.148;2024-03-02T02:34:30;124.93;;;59.00;;
6209;SDS011;3138;52.550;13.148;2024-03-02T02:36:56;121.37;;;56.33;;
6209;SDS011;3138;52.550;13.148;2024-03-02T02:39:25;112.00;;;56.37;;
6209;SDS011;3138;52.550;13.148;2024-03-02T02:41:52;103.30;;;52.50;;
6209;SDS011;3138;52.550;13.148;2024-03-02T02:44:19;132.93;;;55.37;;
6209;SDS011;3138;52.550;13.148;2024-03-02T02:46:45;102.70;;;54.03;;
6209;SDS011;3138;52.550;13.148;2024-03-02T02:49:12;102.43;;;51.90;;
6209;SDS011;3138;52.550;13.148;2024-03-02T02:51:39;112.53;;;50.57;;
6209;SDS011;3138;52.550;13.148;2024-03-02T02:54:06;107.93;;;51.30;;
6209;SDS011;3138;52.550;13.148;2024-03-02T02:56:34;108.17;;;52.97;;
6209;SDS011;3138;52.550;13.148;2024-03-02T02:59:01;94.87;;;50.73;;
6209;SDS011;3138;52.550;13.148;2024-03-02T03:01:28;115.73;;;52.77;;
6209;SDS011;3138;52.550;13.148;2024-03-02T03:03:54;117.27;;;56.67;;
6209;SDS011;3138;52.550;13.148;2024-03-02T03:06:21;105.77;;;53.50;;
6209;SDS011;3138;52.550;13.148;2024-03-02T03:08:48;106.33;;;53.43;;
6209;SDS011;3138;52.550;13.148;2024-03-02T03:11:15;101.33;;;47.63;;
6209;SDS011;3138;52.550;13.148;2024-03-02T03:13:43;116.73;;;59.00;;
6209;SDS011;3138;52.550;13.148;2024-03-02T03:16:10;113.17;;;54.83;;
6209;SDS011;3138;52.550;13.148;2024-03-02T03:18:37;130.93;;;59.60;;
6209;SDS011;3138;52.550;13.148;2024-03-02T03:21:04;147.60;;;67.93;;
6209;SDS011;3138;52.550;13.148;2024-03-02T03:23:31;151.90;;;71.20;;
6209;SDS011;3138;52.550;13.148;2024-03-02T03:25:58;145.20;;;70.10;;
6209;SDS011;3138;52.550;13.148;2024-03-02T03:28:25;156.00;;;72.13;;
6209;SDS011;3138;52.550;13.148;2024-03-02T03:30:54;176.33;;;75.80;;
6209;SDS011;3138;52.550;13.148;2024-03-02T03:33:20;154.80;;;74.80;;
6209;SDS011;3138;52.550;13.148;2024-03-02T03:35:47;155.33;;;76.00;;
6209;SDS011;3138;52.550;13.148;2024-03-02T03:38:14;156.10;;;75.93;;
6209;SDS011;3138;52.550;13.148;2024-03-02T03:40:41;164.43;;;72.23;;
6209;SDS011;3138;52.550;13.148;2024-03-02T03:43:09;152.70;;;79.00;;
6209;SDS011;3138;52.550;13.148;2024-03-02T03:45:35;155.00;;;75.10;;
6209;SDS011;3138;52.550;13.148;2024-03-02T03:48:04;151.47;;;73.60;;
6209;SDS011;3138;52.550;13.148;2024-03-02T03:50:31;158.63;;;72.60;;
6209;SDS011;3138;52.550;13.148;2024-03-02T03:52:58;160.43;;;74.87;;
6209;SDS011;3138;52.550;13.148;2024-03-02T03:55:25;156.77;;;73.77;;
6209;SDS011;3138;52.550;13.148;2024-03-02T03:57:51;150.23;;;72.47;;
6209;SDS011;3138;52.550;13.148;2024-03-02T04:00:18;137.73;;;69.63;;
6209;SDS011;3138;52.550;13.148;2024-03-02T04:02:45;154.00;;;71.57;;
6209;SDS011;3138;52.550;13.148;2024-03-02T04:05:13;146.47;;;71.40;;
6209;SDS011;3138;52.550;13.148;2024-03-02T04:07:40;148.87;;;67.50;;
6209;SDS011;3138;52.550;13.148;2024-03-02T04:10:08;126.37;;;65.57;;
6209;SDS011;3138;52.550;13.148;2024-03-02T04:12:37;140.17;;;67.23;;
6209;SDS011;3138;52.550;13.148;2024-03-02T04:15:04;137.37;;;66.63;;
6209;SDS011;3138;52.550;13.148;2024-03-02T04:17:32;155.33;;;69.17;;
6209;SDS011;3138;52.550;13.148;2024-03-02T04:20:00;137.90;;;67.10;;
6209;SDS011;3138;52.550;13.148;2024-03-02T04:22:32;131.83;;;67.80;;
6209;SDS011;3138;52.550;13.148;2024-03-02T04:25:00;128.80;;;65.30;;
6209;SDS011;3138;52.550;13.148;2024-03-02T04:27:29;119.27;;;61.10;;
6209;SDS011;3138;52.550;13.148;2024-03-02T04:29:56;129.17;;;65.93;;
6209;SDS011;3138;52.550;13.148;2024-03-02T04:32:25;135.33;;;66.50;;
6209;SDS011;3138;52.550;13.148;2024-03-02T04:34:52;128.13;;;63.47;;
6209;SDS011;3138;52.550;13.148;2024-03-02T04:37:19;145.47;;;65.87;;
6209;SDS011;3138;52.550;13.148;2024-03-02T04:39:47;135.27;;;67.77;;
6209;SDS011;3138;52.550;13.148;2024-03-02T04:42:14;109.53;;;60.67;;
6209;SDS011;3138;52.550;13.148;2024-03-02T04:44:40;135.17;;;67.37;;
6209;SDS011;3138;52.550;13.148;2024-03-02T04:47:07;111.97;;;61.33;;
6209;SDS011;3138;52.550;13.148;2024-03-02T04:49:34;124.93;;;63.97;;
6209;SDS011;3138;52.550;13.148;2024-03-02T04:52:01;129.13;;;68.93;;
6209;SDS011;3138;52.550;13.148;2024-03-02T04:54:28;138.67;;;67.50;;
6209;SDS011;3138;52.550;13.148;2024-03-02T04:56:56;135.13;;;66.80;;
6209;SDS011;3138;52.550;13.148;2024-03-02T04:59:23;126.40;;;66.13;;
6209;SDS011;3138;52.550;13.148;2024-03-02T05:01:50;133.80;;;69.27;;
6209;SDS011;3138;52.550;13.148;2024-03-02T05:04:17;132.27;;;66.47;;
6209;SDS011;3138;52.550;13.148;2024-03-02T05:06:44;159.77;;;76.43;;
6209;SDS011;3138;52.550;13.148;2024-03-02T05:09:17;147.87;;;71.60;;
6209;SDS011;3138;52.550;13.148;2024-03-02T05:11:44;136.50;;;68.70;;
6209;SDS011;3138;52.550;13.148;2024-03-02T05:14:36;135.70;;;67.77;;
6209;SDS011;3138;52.550;13.148;2024-03-02T05:17:03;137.23;;;69.10;;
6209;SDS011;3138;52.550;13.148;2024-03-02T05:19:30;137.80;;;69.80;;
6209;SDS011;3138;52.550;13.148;2024-03-02T05:21:57;133.93;;;68.30;;
6209;SDS011;3138;52.550;13.148;2024-03-02T05:24:24;134.33;;;69.57;;
6209;SDS011;3138;52.550;13.148;2024-03-02T05:26:52;135.47;;;66.83;;
6209;SDS011;3138;52.550;13.148;2024-03-02T05:29:19;132.00;;;70.87;;
6209;SDS011;3138;52.550;13.148;2024-03-02T05:31:48;151.73;;;70.57;;
6209;SDS011;3138;52.550;13.148;2024-03-02T05:34:15;141.57;;;69.80;;
6209;SDS011;3138;52.550;13.148;2024-03-02T05:36:41;145.97;;;68.87;;
6209;SDS011;3138;52.550;13.148;2024-03-02T05:39:10;136.63;;;70.07;;
6209;SDS011;3138;52.550;13.148;2024-03-02T05:41:37;134.57;;;69.93;;
6209;SDS011;3138;52.550;13.148;2024-03-02T05:44:04;159.30;;;71.30;;
6209;SDS011;3138;52.550;13.148;2024-03-02T05:46:31;134.37;;;71.83;;
6209;SDS011;3138;52.550;13.148;2024-03-02T05:48:59;140.77;;;67.63;;
6209;SDS011;3138;52.550;13.148;2024-03-02T05:51:26;138.60;;;71.30;;
6209;SDS011;3138;52.550;13.148;2024-03-02T05:53:53;138.50;;;70.67;;
6209;SDS011;3138;52.550;13.148;2024-03-02T05:56:20;139.50;;;69.23;;
6209;SDS011;3138;52.550;13.148;2024-03-02T05:58:47;121.67;;;67.57;;
6209;SDS011;3138;52.550;13.148;2024-03-02T06:01:25;128.50;;;65.27;;
6209;SDS011;3138;52.550;13.148;2024-03-02T06:03:54;136.07;;;70.10;;
6209;SDS011;3138;52.550;13.148;2024-03-02T06:06:22;122.27;;;63.20;;
6209;SDS011;3138;52.550;13.148;2024-03-02T06:08:49;148.17;;;66.67;;
6209;SDS011;3138;52.550;13.148;2024-03-02T06:11:16;132.33;;;65.10;;
6209;SDS011;3138;52.550;13.148;2024-03-02T06:13:43;133.80;;;69.90;;
6209;SDS011;3138;52.550;13.148;2024-03-02T06:16:10;128.70;;;66.63;;
6209;SDS011;3138;52.550;13.148;2024-03-02T06:18:37;153.43;;;71.37;;
6209;SDS011;3138;52.550;13.148;2024-03-02T06:21:04;149.83;;;70.17;;
6209;SDS011;3138;52.550;13.148;2024-03-02T06:23:32;135.03;;;68.50;;
6209;SDS011;3138;52.550;13.148;2024-03-02T06:25:59;144.37;;;70.57;;
6209;SDS011;3138;52.550;13.148;2024-03-02T06:28:27;158.77;;;67.60;;
6209;SDS011;3138;52.550;13.148;2024-03-02T06:30:54;131.23;;;66.43;;
6209;SDS011;3138;52.550;13.148;2024-03-02T06:33:21;132.77;;;69.80;;
6209;SDS011;3138;52.550;13.148;2024-03-02T06:35:47;138.73;;;66.57;;
6209;SDS011;3138;52.550;13.148;2024-03-02T06:38:15;142.33;;;66.90;;
6209;SDS011;3138;52.550;13.148;2024-03-02T06:40:43;135.67;;;68.43;;
6209;SDS011;3138;52.550;13.148;2024-03-02T06:43:10;123.23;;;66.07;;
6209;SDS011;3138;52.550;13.148;2024-03-02T06:45:37;131.83;;;66.23;;
6209;SDS011;3138;52.550;13.148;2024-03-02T06:48:04;131.10;;;65.60;;
6209;SDS011;3138;52.550;13.148;2024-03-02T06:50:31;132.33;;;65.17;;
6209;SDS011;3138;52.550;13.148;2024-03-02T06:52:58;146.70;;;68.80;;
6209;SDS011;3138;52.550;13.148;2024-03-02T06:55:25;130.67;;;65.70;;
6209;SDS011;3138;52.550;13.148;2024-03-02T06:57:53;143.47;;;69.00;;
6209;SDS011;3138;52.550;13.148;2024-03-02T07:00:20;129.13;;;63.37;;
6209;SDS011;3138;52.550;13.148;2024-03-02T07:02:47;130.37;;;65.53;;
6209;SDS011;3138;52.550;13.148;2024-03-02T07:05:16;141.67;;;68.37;;
6209;SDS011;3138;52.550;13.148;2024-03-02T07:07:43;134.60;;;68.63;;
6209;SDS011;3138;52.550;13.148;2024-03-02T07:10:10;130.60;;;67.87;;
6209;SDS011;3138;52.550;13.148;2024-03-02T07:12:38;129.00;;;65.63;;
6209;SDS011;3138;52.550;13.148;2024-03-02T07:15:07;136.93;;;64.47;;
6209;SDS011;3138;52.550;13.148;2024-03-02T07:17:50;146.73;;;67.97;;
6209;SDS011;3138;52.550;13.148;2024-03-02T07:20:17;125.43;;;65.40;;
6209;SDS011;3138;52.550;13.148;2024-03-02T07:22:43;128.33;;;66.30;;
6209;SDS011;3138;52.550;13.148;2024-03-02T07:25:10;130.93;;;67.00;;
6209;SDS011;3138;52.550;13.148;2024-03-02T07:27:38;134.50;;;63.77;;
6209;SDS011;3138;52.550;13.148;2024-03-02T07:30:07;119.00;;;61.53;;
6209;SDS011;3138;52.550;13.148;2024-03-02T07:32:34;127.30;;;58.77;;
6209;SDS011;3138;52.550;13.148;2024-03-02T07:35:01;120.70;;;61.00;;
6209;SDS011;3138;52.550;13.148;2024-03-02T07:37:28;119.70;;;59.97;;
6209;SDS011;3138;52.550;13.148;2024-03-02T07:39:55;109.97;;;57.90;;
6209;SDS011;3138;52.550;13.148;2024-03-02T07:42:22;115.37;;;60.50;;
6209;SDS011;3138;52.550;13.148;2024-03-02T07:44:49;118.87;;;64.80;;
6209;SDS011;3138;52.550;13.148;2024-03-02T07:47:17;131.80;;;61.00;;
6209;SDS011;3138;52.550;13.148;2024-03-02T07:49:44;125.47;;;61.57;;
6209;SDS011;3138;52.550;13.148;2024-03-02T07:52:12;132.20;;;62.47;;
6209;SDS011;3138;52.550;13.148;2024-03-02T07:54:39;120.37;;;60.27;;
6209;SDS011;3138;52.550;13.148;2024-03-02T07:57:05;109.30;;;57.97;;
6209;SDS011;3138;52.550;13.148;2024-03-02T07:59:33;127.07;;;63.50;;
6209;SDS011;3138;52.550;13.148;2024-03-02T08:02:00;118.73;;;61.53;;
6209;SDS011;3138;52.550;13.148;2024-03-02T08:04:28;129.37;;;64.50;;
6209;SDS011;3138;52.550;13.148;2024-03-02T08:06:55;127.93;;;60.73;;
6209;SDS011;3138;52.550;13.148;2024-03-02T08:09:23;127.00;;;61.27;;
6209;SDS011;3138;52.550;13.148;2024-03-02T08:11:51;120.53;;;60.40;;
6209;SDS011;3138;52.550;13.148;2024-03-02T08:14:17;120.47;;;62.43;;
6209;SDS011;3138;52.550;13.148;2024-03-02T08:16:44;125.57;;;60.40;;
6209;SDS011;3138;52.550;13.148;2024-03-02T08:19:12;125.87;;;60.30;;
6209;SDS011;3138;52.550;13.148;2024-03-02T08:21:40;125.87;;;64.50;;
6209;SDS011;3138;52.550;13.148;2024-03-02T08:24:07;128.00;;;63.10;;
6209;SDS011;3138;52.550;13.148;2024-03-02T08:26:34;119.63;;;63.07;;
6209;SDS011;3138;52.550;13.148;2024-03-02T08:29:01;135.23;;;61.13;;
6209;SDS011;3138;52.550;13.148;2024-03-02T08:31:28;119.00;;;61.37;;
6209;SDS011;3138;52.550;13.148;2024-03-02T08:33:55;125.37;;;62.33;;
6209;SDS011;3138;52.550;13.148;2024-03-02T08:36:23;120.97;;;61.67;;
6209;SDS011;3138;52.550;13.148;2024-03-02T08:38:52;116.63;;;60.00;;
6209;SDS011;3138;52.550;13.148;2024-03-02T08:41:19;124.60;;;62.87;;
6209;SDS011;3138;52.550;13.148;2024-03-02T08:43:46;120.90;;;60.93;;
6209;SDS011;3138;52.550;13.148;2024-03-02T08:46:13;125.27;;;61.40;;
6209;SDS011;3138;52.550;13.148;2024-03-02T08:48:40;112.97;;;60.60;;
6209;SDS011;3138;52.550;13.148;2024-03-02T08:51:07;108.60;;;58.13;;
6209;SDS011;3138;52.550;13.148;2024-03-02T08:53:35;120.03;;;59.47;;
6209;SDS011;3138;52.550;13.148;2024-03-02T08:56:04;120.77;;;62.43;;
6209;SDS011;3138;52.550;13.148;2024-03-02T08:58:31;113.50;;;58.83;;
6209;SDS011;3138;52.550;13.148;2024-03-02T09:00:58;126.10;;;59.30;;
6209;SDS011;3138;52.550;13.148;2024-03-02T09:03:25;109.57;;;57.37;;
6209;SDS011;3138;52.550;13.148;2024-03-02T09:05:52;113.03;;;59.63;;
6209;SDS011;3138;52.550;13.148;2024-03-02T09:08:19;121.27;;;59.30;;
6209;SDS011;3138;52.550;13.148;2024-03-02T09:10:46;109.80;;;60.87;;
6209;SDS011;3138;52.550;13.148;2024-03-02T09:13:14;117.00;;;60.13;;
6209;SDS011;3138;52.550;13.148;2024-03-02T09:15:41;127.43;;;57.47;;
6209;SDS011;3138;52.550;13.148;2024-03-02T09:18:09;116.40;;;58.67;;
6209;SDS011;3138;52.550;13.148;2024-03-02T09:20:36;118.17;;;59.87;;
6209;SDS011;3138;52.550;13.148;2024-03-02T09:23:03;105.23;;;55.53;;
6209;SDS011;3138;52.550;13.148;2024-03-02T09:25:30;114.07;;;56.77;;
6209;SDS011;3138;52.550;13.148;2024-03-02T09:27:57;111.33;;;55.17;;
6209;SDS011;3138;52.550;13.148;2024-03-02T09:30:25;107.40;;;55.90;;
6209;SDS011;3138;52.550;13.148;2024-03-02T09:32:52;102.63;;;52.40;;
6209;SDS011;3138;52.550;13.148;2024-03-02T09:35:19;109.77;;;53.80;;
6209;SDS011;3138;52.550;13.148;2024-03-02T09:37:46;113.00;;;53.67;;
6209;SDS011;3138;52.550;13.148;2024-03-02T09:40:13;118.27;;;56.20;;
6209;SDS011;3138;52.550;13.148;2024-03-02T09:42:41;104.73;;;54.03;;
6209;SDS011;3138;52.550;13.148;2024-03-02T09:45:09;104.40;;;55.50;;
6209;SDS011;3138;52.550;13.148;2024-03-02T09:47:37;102.10;;;52.63;;
6209;SDS011;3138;52.550;13.148;2024-03-02T09:50:05;92.83;;;53.10;;
6209;SDS011;3138;52.550;13.148;2024-03-02T09:52:33;109.23;;;53.07;;
6209;SDS011;3138;52.550;13.148;2024-03-02T09:55:00;97.43;;;53.00;;
6209;SDS011;3138;52.550;13.148;2024-03-02T09:57:27;98.70;;;54.30;;
6209;SDS011;3138;52.550;13.148;2024-03-02T09:59:54;92.90;;;52.87;;
6209;SDS011;3138;52.550;13.148;2024-03-02T10:02:21;112.23;;;54.80;;
6209;SDS011;3138;52.550;13.148;2024-03-02T10:04:50;92.17;;;49.97;;
6209;SDS011;3138;52.550;13.148;2024-03-02T10:07:17;96.83;;;51.50;;
6209;SDS011;3138;52.550;13.148;2024-03-02T10:09:45;91.03;;;49.67;;
6209;SDS011;3138;52.550;13.148;2024-03-02T10:12:12;86.70;;;47.67;;
6209;SDS011;3138;52.550;13.148;2024-03-02T10:14:40;96.07;;;50.43;;
6209;SDS011;3138;52.550;13.148;2024-03-02T10:17:08;84.87;;;50.67;;
6209;SDS011;3138;52.550;13.148;2024-03-02T10:19:36;86.57;;;50.97;;
6209;SDS011;3138;52.550;13.148;2024-03-02T10:22:05;97.43;;;51.43;;
6209;SDS011;3138;52.550;13.148;2024-03-02T10:24:36;95.13;;;48.33;;
6209;SDS011;3138;52.550;13.148;2024-03-02T10:27:08;86.77;;;47.50;;
6209;SDS011;3138;52.550;13.148;2024-03-02T10:29:38;83.47;;;44.10;;
6209;SDS011;3138;52.550;13.148;2024-03-02T10:32:08;90.37;;;46.20;;
6209;SDS011;3138;52.550;13.148;2024-03-02T10:34:36;87.83;;;46.07;;
6209;SDS011;3138;52.550;13.148;2024-03-02T10:37:04;77.43;;;46.20;;
6209;SDS011;3138;52.550;13.148;2024-03-02T10:39:32;80.37;;;45.20;;
6209;SDS011;3138;52.550;13.148;2024-03-02T10:42:00;81.53;;;43.77;;
6209;SDS011;3138;52.550;13.148;2024-03-02T10:44:31;71.97;;;42.67;;
6209;SDS011;3138;52.550;13.148;2024-03-02T10:47:00;88.90;;;45.33;;
6209;SDS011;3138;52.550;13.148;2024-03-02T10:49:28;72.80;;;41.43;;
6209;SDS011;3138;52.550;13.148;2024-03-02T10:51:57;71.07;;;43.40;;
6209;SDS011;3138;52.550;13.148;2024-03-02T10:54:25;73.97;;;39.30;;
6209;SDS011;3138;52.550;13.148;2024-03-02T10:56:55;71.27;;;39.40;;
6209;SDS011;3138;52.550;13.148;2024-03-02T10:59:27;76.57;;;42.00;;
6209;SDS011;3138;52.550;13.148;2024-03-02T11:01:58;68.23;;;39.20;;
6209;SDS011;3138;52.550;13.148;2024-03-02T11:04:26;57.13;;;35.23;;
6209;SDS011;3138;52.550;13.148;2024-03-02T11:06:56;70.37;;;38.07;;
6209;SDS011;3138;52.550;13.148;2024-03-02T11:09:28;71.33;;;37.83;;
6209;SDS011;3138;52.550;13.148;2024-03-02T11:11:58;74.00;;;37.10;;
6209;SDS011;3138;52.550;13.148;2024-03-02T11:14:32;60.10;;;36.53;;
6209;SDS011;3138;52.550;13.148;2024-03-02T11:17:01;64.83;;;37.37;;
6209;SDS011;3138;52.550;13.148;2024-03-02T11:19:33;59.30;;;36.53;;
6209;SDS011;3138;52.550;13.148;2024-03-02T11:22:01;62.83;;;37.30;;
6209;SDS011;3138;52.550;13.148;2024-03-02T11:24:32;61.20;;;35.33;;
6209;SDS011;3138;52.550;13.148;2024-03-02T11:27:00;60.93;;;33.60;;
6209;SDS011;3138;52.550;13.148;2024-03-02T11:29:43;69.47;;;34.90;;
6209;SDS011;3138;52.550;13.148;2024-03-02T11:32:14;52.83;;;33.37;;
6209;SDS011;3138;52.550;13.148;2024-03-02T11:34:47;54.33;;;30.40;;
6209;SDS011;3138;52.550;13.148;2024-03-02T11:37:15;56.80;;;31.13;;
6209;SDS011;3138;52.550;13.148;2024-03-02T11:39:45;58.93;;;30.80;;
6209;SDS011;3138;52.550;13.148;2024-03-02T11:42:13;48.13;;;31.60;;
6209;SDS011;3138;52.550;13.148;2024-03-02T11:44:47;53.27;;;30.87;;
6209;SDS011;3138;52.550;13.148;2024-03-02T11:47:22;51.33;;;29.97;;
6209;SDS011;3138;52.550;13.148;2024-03-02T11:49:57;50.63;;;29.83;;
6209;SDS011;3138;52.550;13.148;2024-03-02T11:52:25;51.73;;;30.03;;
6209;SDS011;3138;52.550;13.148;2024-03-02T11:54:54;54.77;;;30.80;;
6209;SDS011;3138;52.550;13.148;2024-03-02T11:57:22;50.33;;;29.60;;
6209;SDS011;3138;52.550;13.148;2024-03-02T11:59:50;47.60;;;28.27;;
6209;SDS011;3138;52.550;13.148;2024-03-02T12:02:17;54.17;;;31.50;;
6209;SDS011;3138;52.550;13.148;2024-03-02T12:04:45;52.17;;;31.80;;
6209;SDS011;3138;52.550;13.148;2024-03-02T12:07:18;55.97;;;29.73;;
6209;SDS011;3138;52.550;13.148;2024-03-02T12:09:47;47.23;;;30.07;;
6209;SDS011;3138;52.550;13.148;2024-03-02T12:12:15;52.83;;;29.60;;
6209;SDS011;3138;52.550;13.148;2024-03-02T12:14:49;50.40;;;30.30;;
6209;SDS011;3138;52.550;13.148;2024-03-02T12:17:17;58.07;;;29.07;;
6209;SDS011;3138;52.550;13.148;2024-03-02T12:19:44;49.13;;;30.60;;
6209;SDS011;3138;52.550;13.148;2024-03-02T12:22:11;40.63;;;27.47;;
6209;SDS011;3138;52.550;13.148;2024-03-02T12:24:40;47.20;;;28.27;;
6209;SDS011;3138;52.550;13.148;2024-03-02T12:27:19;53.80;;;30.27;;
6209;SDS011;3138;52.550;13.148;2024-03-02T12:29:47;44.23;;;26.17;;
6209;SDS011;3138;52.550;13.148;2024-03-02T12:32:15;43.27;;;25.47;;
6209;SDS011;3138;52.550;13.148;2024-03-02T12:34:42;43.10;;;25.67;;
6209;SDS011;3138;52.550;13.148;2024-03-02T12:37:21;40.57;;;24.60;;
6209;SDS011;3138;52.550;13.148;2024-03-02T12:39:48;36.57;;;23.97;;
6209;SDS011;3138;52.550;13.148;2024-03-02T12:42:15;45.97;;;26.00;;
6209;SDS011;3138;52.550;13.148;2024-03-02T12:44:45;39.60;;;27.07;;
6209;SDS011;3138;52.550;13.148;2024-03-02T12:47:12;43.73;;;25.93;;
6209;SDS011;3138;52.550;13.148;2024-03-02T12:49:42;38.33;;;23.97;;
6209;SDS011;3138;52.550;13.148;2024-03-02T12:52:11;43.97;;;25.80;;
6209;SDS011;3138;52.550;13.148;2024-03-02T12:54:38;46.27;;;26.20;;
6209;SDS011;3138;52.550;13.148;2024-03-02T12:57:05;46.47;;;25.00;;
6209;SDS011;3138;52.550;13.148;2024-03-02T12:59:32;36.80;;;22.17;;
6209;SDS011;3138;52.550;13.148;2024-03-02T13:02:00;38.20;;;22.60;;
6209;SDS011;3138;52.550;13.148;2024-03-02T13:04:28;39.40;;;23.47;;
6209;SDS011;3138;52.550;13.148;2024-03-02T13:06:56;38.03;;;23.40;;
6209;SDS011;3138;52.550;13.148;2024-03-02T13:09:23;39.83;;;21.03;;
6209;SDS011;3138;52.550;13.148;2024-03-02T13:11:50;34.27;;;22.53;;
6209;SDS011;3138;52.550;13.148;2024-03-02T13:14:17;34.83;;;22.23;;
6209;SDS011;3138;52.550;13.148;2024-03-02T13:16:44;35.40;;;22.43;;
6209;SDS011;3138;52.550;13.148;2024-03-02T13:19:13;35.17;;;22.13;;
6209;SDS011;3138;52.550;13.148;2024-03-02T13:21:40;41.30;;;24.23;;
6209;SDS011;3138;52.550;13.148;2024-03-02T13:24:07;35.83;;;22.47;;
6209;SDS011;3138;52.550;13.148;2024-03-02T13:26:34;39.43;;;22.60;;
6209;SDS011;3138;52.550;13.148;2024-03-02T13:29:01;35.03;;;20.53;;
6209;SDS011;3138;52.550;13.148;2024-03-02T13:31:28;33.83;;;20.20;;
6209;SDS011;3138;52.550;13.148;2024-03-02T13:33:55;34.13;;;20.20;;
6209;SDS011;3138;52.550;13.148;2024-03-02T13:36:23;36.23;;;19.57;;
6209;SDS011;3138;52.550;13.148;2024-03-02T13:38:50;32.87;;;20.80;;
6209;SDS011;3138;52.550;13.148;2024-03-02T13:41:18;35.03;;;21.67;;
6209;SDS011;3138;52.550;13.148;2024-03-02T13:43:45;36.70;;;22.83;;
6209;SDS011;3138;52.550;13.148;2024-03-02T13:46:13;30.23;;;20.40;;
6209;SDS011;3138;52.550;13.148;2024-03-02T13:48:40;43.17;;;23.03;;
6209;SDS011;3138;52.550;13.148;2024-03-02T13:51:07;40.77;;;23.97;;
6209;SDS011;3138;52.550;13.148;2024-03-02T13:53:35;37.40;;;24.47;;
6209;SDS011;3138;52.550;13.148;2024-03-02T13:56:02;31.50;;;20.13;;
6209;SDS011;3138;52.550;13.148;2024-03-02T13:58:30;37.83;;;21.90;;
6209;SDS011;3138;52.550;13.148;2024-03-02T14:00:57;37.37;;;21.60;;
6209;SDS011;3138;52.550;13.148;2024-03-02T14:03:24;36.00;;;21.73;;
6209;SDS011;3138;52.550;13.148;2024-03-02T14:05:52;38.67;;;23.50;;
6209;SDS011;3138;52.550;13.148;2024-03-02T14:08:20;40.70;;;22.00;;
6209;SDS011;3138;52.550;13.148;2024-03-02T14:10:49;31.50;;;21.23;;
6209;SDS011;3138;52.550;13.148;2024-03-02T14:13:16;36.37;;;22.10;;
6209;SDS011;3138;52.550;13.148;2024-03-02T14:15:43;32.43;;;21.10;;
6209;SDS011;3138;52.550;13.148;2024-03-02T14:18:11;33.60;;;21.33;;
6209;SDS011;3138;52.550;13.148;2024-03-02T14:20:37;33.23;;;19.20;;
6209;SDS011;3138;52.550;13.148;2024-03-02T14:23:04;25.37;;;18.00;;
6209;SDS011;3138;52.550;13.148;2024-03-02T14:25:31;30.33;;;18.20;;
6209;SDS011;3138;52.550;13.148;2024-03-02T14:28:00;30.97;;;18.70;;
6209;SDS011;3138;52.550;13.148;2024-03-02T14:30:27;26.17;;;18.50;;
6209;SDS011;3138;52.550;13.148;2024-03-02T14:32:54;31.47;;;19.97;;